sensor_id;sensor_type;location;lat;lon;timestamp;temperature;humidity
49222;DHT22;35047;37.588;-122.048;2022-12-17T00:00:31;14.90;80.10
49222;DHT22;35047;37.588;-122.048;2022-12-17T00:03:17;15.30;77.20
49222;DHT22;35047;37.588;-122.048;2022-12-17T00:06:02;15.10;78.90
49222;DHT22;35047;37.588;-122.048;2022-12-17T00:08:47;15.40;78.80
49222;DHT22;35047;37.588;-122.048;2022-12-17T00:11:33;15.40;77.50
49222;DHT22;35047;37.588;-122.048;2022-12-17T00:14:19;15.50;76.70
49222;DHT22;35047;37.588;-122.048;2022-12-17T00:17:03;15.40;77.00
49222;DHT22;35047;37.588;-122.048;2022-12-17T00:19:49;14.80;78.30
49222;DHT22;35047;37.588;-122.048;2022-12-17T00:22:34;14.70;79.90
49222;DHT22;35047;37.588;-122.048;2022-12-17T00:25:20;14.80;78.30
49222;DHT22;35047;37.588;-122.048;2022-12-17T00:28:09;14.60;79.80
49222;DHT22;35047;37.588;-122.048;2022-12-17T00:30:56;14.50;81.60
49222;DHT22;35047;37.588;-122.048;2022-12-17T00:33:42;14.30;81.30
49222;DHT22;35047;37.588;-122.048;2022-12-17T00:36:27;13.90;83.00
49222;DHT22;35047;37.588;-122.048;2022-12-17T00:39:11;14.00;84.70
49222;DHT22;35047;37.588;-122.048;2022-12-17T00:41:57;14.10;83.60
49222;DHT22;35047;37.588;-122.048;2022-12-17T00:44:43;14.40;82.70
49222;DHT22;35047;37.588;-122.048;2022-12-17T00:47:28;15.00;80.10
49222;DHT22;35047;37.588;-122.048;2022-12-17T00:50:14;14.50;81.60
49222;DHT22;35047;37.588;-122.048;2022-12-17T00:52:59;13.90;82.30
49222;DHT22;35047;37.588;-122.048;2022-12-17T00:55:44;13.40;84.60
49222;DHT22;35047;37.588;-122.048;2022-12-17T00:58:29;12.90;86.30
49222;DHT22;35047;37.588;-122.048;2022-12-17T01:01:15;12.80;88.90
49222;DHT22;35047;37.588;-122.048;2022-12-17T01:04:00;13.20;85.30
49222;DHT22;35047;37.588;-122.048;2022-12-17T01:06:45;12.50;87.80
49222;DHT22;35047;37.588;-122.048;2022-12-17T01:09:31;11.90;90.50
49222;DHT22;35047;37.588;-122.048;2022-12-17T01:12:17;11.60;90.90
49222;DHT22;35047;37.588;-122.048;2022-12-17T01:15:04;11.20;91.80
49222;DHT22;35047;37.588;-122.048;2022-12-17T01:17:48;11.00;92.30
49222;DHT22;35047;37.588;-122.048;2022-12-17T01:20:34;10.80;92.80
49222;DHT22;35047;37.588;-122.048;2022-12-17T01:23:20;10.70;99.90
49222;DHT22;35047;37.588;-122.048;2022-12-17T01:26:06;10.40;93.70
49222;DHT22;35047;37.588;-122.048;2022-12-17T01:28:51;10.50;94.80
49222;DHT22;35047;37.588;-122.048;2022-12-17T01:31:37;10.90;93.70
49222;DHT22;35047;37.588;-122.048;2022-12-17T01:34:23;10.70;93.20
49222;DHT22;35047;37.588;-122.048;2022-12-17T01:37:07;10.50;93.60
49222;DHT22;35047;37.588;-122.048;2022-12-17T01:39:53;10.40;94.00
49222;DHT22;35047;37.588;-122.048;2022-12-17T01:42:44;11.00;94.00
49222;DHT22;35047;37.588;-122.048;2022-12-17T01:45:42;11.40;93.30
49222;DHT22;35047;37.588;-122.048;2022-12-17T01:48:39;12.10;91.60
49222;DHT22;35047;37.588;-122.048;2022-12-17T01:51:25;12.10;90.80
49222;DHT22;35047;37.588;-122.048;2022-12-17T01:54:11;12.20;91.30
49222;DHT22;35047;37.588;-122.048;2022-12-17T01:56:58;12.00;90.10
49222;DHT22;35047;37.588;-122.048;2022-12-17T02:00:00;12.00;90.50
49222;DHT22;35047;37.588;-122.048;2022-12-17T02:02:45;11.90;90.80
49222;DHT22;35047;37.588;-122.048;2022-12-17T02:05:41;12.10;90.70
49222;DHT22;35047;37.588;-122.048;2022-12-17T02:14:22;11.30;90.90
49222;DHT22;35047;37.588;-122.048;2022-12-17T02:17:11;11.30;91.30
49222;DHT22;35047;37.588;-122.048;2022-12-17T02:20:13;10.80;92.30
49222;DHT22;35047;37.588;-122.048;2022-12-17T02:23:21;11.50;91.10
49222;DHT22;35047;37.588;-122.048;2022-12-17T02:26:28;11.20;90.90
49222;DHT22;35047;37.588;-122.048;2022-12-17T02:29:16;11.40;91.20
49222;DHT22;35047;37.588;-122.048;2022-12-17T02:32:03;11.60;89.50
49222;DHT22;35047;37.588;-122.048;2022-12-17T02:34:49;11.00;90.10
49222;DHT22;35047;37.588;-122.048;2022-12-17T02:37:35;10.90;92.50
49222;DHT22;35047;37.588;-122.048;2022-12-17T02:40:22;10.50;91.20
49222;DHT22;35047;37.588;-122.048;2022-12-17T02:43:09;9.80;93.40
49222;DHT22;35047;37.588;-122.048;2022-12-17T02:45:56;9.40;94.70
49222;DHT22;35047;37.588;-122.048;2022-12-17T02:48:41;9.40;96.30
49222;DHT22;35047;37.588;-122.048;2022-12-17T02:51:26;9.20;95.50
49222;DHT22;35047;37.588;-122.048;2022-12-17T02:54:11;9.20;95.30
49222;DHT22;35047;37.588;-122.048;2022-12-17T02:56:56;9.30;96.10
49222;DHT22;35047;37.588;-122.048;2022-12-17T02:59:42;9.00;95.30
49222;DHT22;35047;37.588;-122.048;2022-12-17T03:02:27;9.20;96.70
49222;DHT22;35047;37.588;-122.048;2022-12-17T03:05:12;9.70;95.50
49222;DHT22;35047;37.588;-122.048;2022-12-17T03:07:57;9.70;94.40
49222;DHT22;35047;37.588;-122.048;2022-12-17T03:10:42;9.40;94.20
49222;DHT22;35047;37.588;-122.048;2022-12-17T03:13:29;9.10;94.40
49222;DHT22;35047;37.588;-122.048;2022-12-17T03:16:16;8.70;95.00
49222;DHT22;35047;37.588;-122.048;2022-12-17T03:19:02;8.70;96.50
49222;DHT22;35047;37.588;-122.048;2022-12-17T03:21:48;9.30;96.20
49222;DHT22;35047;37.588;-122.048;2022-12-17T03:24:33;9.20;95.90
49222;DHT22;35047;37.588;-122.048;2022-12-17T03:27:19;10.10;95.90
49222;DHT22;35047;37.588;-122.048;2022-12-17T03:30:04;11.60;91.40
49222;DHT22;35047;37.588;-122.048;2022-12-17T03:32:50;12.50;90.80
49222;DHT22;35047;37.588;-122.048;2022-12-17T03:35:34;13.50;87.20
49222;DHT22;35047;37.588;-122.048;2022-12-17T03:38:20;13.20;82.80
49222;DHT22;35047;37.588;-122.048;2022-12-17T03:41:06;12.30;85.30
49222;DHT22;35047;37.588;-122.048;2022-12-17T03:43:51;12.80;87.20
49222;DHT22;35047;37.588;-122.048;2022-12-17T03:46:36;13.80;85.10
49222;DHT22;35047;37.588;-122.048;2022-12-17T03:49:21;15.00;79.70
49222;DHT22;35047;37.588;-122.048;2022-12-17T03:52:07;15.60;77.80
49222;DHT22;35047;37.588;-122.048;2022-12-17T03:54:53;16.00;75.60
49222;DHT22;35047;37.588;-122.048;2022-12-17T03:57:38;16.10;71.60
49222;DHT22;35047;37.588;-122.048;2022-12-17T04:00:40;15.40;74.00
49222;DHT22;35047;37.588;-122.048;2022-12-17T04:03:26;16.20;73.70
49222;DHT22;35047;37.588;-122.048;2022-12-17T04:06:11;16.70;71.40
49222;DHT22;35047;37.588;-122.048;2022-12-17T04:08:58;17.20;69.90
49222;DHT22;35047;37.588;-122.048;2022-12-17T04:11:43;17.50;68.20
49222;DHT22;35047;37.588;-122.048;2022-12-17T04:14:29;17.70;67.30
49222;DHT22;35047;37.588;-122.048;2022-12-17T04:17:14;16.70;69.20
49222;DHT22;35047;37.588;-122.048;2022-12-17T04:20:00;16.90;68.40
49222;DHT22;35047;37.588;-122.048;2022-12-17T04:22:45;17.40;67.20
49222;DHT22;35047;37.588;-122.048;2022-12-17T04:25:31;17.40;66.80
49222;DHT22;35047;37.588;-122.048;2022-12-17T04:28:15;17.50;66.00
49222;DHT22;35047;37.588;-122.048;2022-12-17T04:31:01;16.70;66.50
49222;DHT22;35047;37.588;-122.048;2022-12-17T04:33:48;15.70;66.60
49222;DHT22;35047;37.588;-122.048;2022-12-17T04:36:32;15.10;71.30
49222;DHT22;35047;37.588;-122.048;2022-12-17T04:39:18;15.40;71.10
49222;DHT22;35047;37.588;-122.048;2022-12-17T04:42:03;15.30;71.80
49222;DHT22;35047;37.588;-122.048;2022-12-17T04:44:48;16.10;69.70
49222;DHT22;35047;37.588;-122.048;2022-12-17T04:47:33;16.80;67.30
49222;DHT22;35047;37.588;-122.048;2022-12-17T04:50:23;15.30;65.10
49222;DHT22;35047;37.588;-122.048;2022-12-17T04:53:09;15.20;71.60
49222;DHT22;35047;37.588;-122.048;2022-12-17T04:55:55;16.40;69.00
49222;DHT22;35047;37.588;-122.048;2022-12-17T04:58:40;16.70;67.20
49222;DHT22;35047;37.588;-122.048;2022-12-17T05:01:26;17.20;66.00
49222;DHT22;35047;37.588;-122.048;2022-12-17T05:04:11;17.30;64.70
49222;DHT22;35047;37.588;-122.048;2022-12-17T05:06:56;17.50;64.60
49222;DHT22;35047;37.588;-122.048;2022-12-17T05:09:42;17.50;64.00
49222;DHT22;35047;37.588;-122.048;2022-12-17T05:12:28;17.70;63.40
49222;DHT22;35047;37.588;-122.048;2022-12-17T05:15:13;15.90;62.00
49222;DHT22;35047;37.588;-122.048;2022-12-17T05:18:06;13.60;67.50
49222;DHT22;35047;37.588;-122.048;2022-12-17T05:20:51;12.00;76.70
49222;DHT22;35047;37.588;-122.048;2022-12-17T05:23:36;13.80;75.40
49222;DHT22;35047;37.588;-122.048;2022-12-17T05:26:23;15.00;71.60
49222;DHT22;35047;37.588;-122.048;2022-12-17T05:29:09;14.70;66.70
49222;DHT22;35047;37.588;-122.048;2022-12-17T05:31:54;14.40;72.70
49222;DHT22;35047;37.588;-122.048;2022-12-17T05:34:40;14.60;70.30
49222;DHT22;35047;37.588;-122.048;2022-12-17T05:37:25;13.50;72.10
49222;DHT22;35047;37.588;-122.048;2022-12-17T05:40:10;13.10;70.70
49222;DHT22;35047;37.588;-122.048;2022-12-17T05:42:58;12.30;74.30
49222;DHT22;35047;37.588;-122.048;2022-12-17T05:45:45;13.60;76.00
49222;DHT22;35047;37.588;-122.048;2022-12-17T05:48:30;14.80;70.90
49222;DHT22;35047;37.588;-122.048;2022-12-17T05:51:18;14.60;68.50
49222;DHT22;35047;37.588;-122.048;2022-12-17T05:54:04;14.90;71.00
49222;DHT22;35047;37.588;-122.048;2022-12-17T05:56:49;15.30;65.00
49222;DHT22;35047;37.588;-122.048;2022-12-17T05:59:35;14.10;71.60
49222;DHT22;35047;37.588;-122.048;2022-12-17T06:02:20;14.70;70.30
49222;DHT22;35047;37.588;-122.048;2022-12-17T06:05:05;15.50;66.70
49222;DHT22;35047;37.588;-122.048;2022-12-17T06:07:50;15.70;68.10
49222;DHT22;35047;37.588;-122.048;2022-12-17T06:10:36;14.90;68.30
49222;DHT22;35047;37.588;-122.048;2022-12-17T06:13:21;16.00;66.90
49222;DHT22;35047;37.588;-122.048;2022-12-17T06:16:06;15.00;68.30
49222;DHT22;35047;37.588;-122.048;2022-12-17T06:18:51;16.00;66.60
49222;DHT22;35047;37.588;-122.048;2022-12-17T06:21:37;15.50;66.00
49222;DHT22;35047;37.588;-122.048;2022-12-17T06:24:22;14.50;70.10
49222;DHT22;35047;37.588;-122.048;2022-12-17T06:27:08;15.60;66.70
49222;DHT22;35047;37.588;-122.048;2022-12-17T06:29:53;14.10;67.60
49222;DHT22;35047;37.588;-122.048;2022-12-17T06:32:39;15.10;68.90
49222;DHT22;35047;37.588;-122.048;2022-12-17T06:35:24;16.00;66.00
49222;DHT22;35047;37.588;-122.048;2022-12-17T06:38:10;16.50;64.70
49222;DHT22;35047;37.588;-122.048;2022-12-17T06:40:59;16.90;63.60
49222;DHT22;35047;37.588;-122.048;2022-12-17T06:43:44;17.00;62.80
49222;DHT22;35047;37.588;-122.048;2022-12-17T06:46:30;17.30;62.10
49222;DHT22;35047;37.588;-122.048;2022-12-17T06:49:19;16.90;62.30
49222;DHT22;35047;37.588;-122.048;2022-12-17T06:52:04;17.30;61.80
49222;DHT22;35047;37.588;-122.048;2022-12-17T06:54:50;17.30;61.10
49222;DHT22;35047;37.588;-122.048;2022-12-17T06:57:35;17.30;61.10
49222;DHT22;35047;37.588;-122.048;2022-12-17T07:00:20;17.30;61.00
49222;DHT22;35047;37.588;-122.048;2022-12-17T07:03:09;16.90;61.70
49222;DHT22;35047;37.588;-122.048;2022-12-17T07:05:59;17.20;61.10
49222;DHT22;35047;37.588;-122.048;2022-12-17T07:08:45;16.90;61.30
49222;DHT22;35047;37.588;-122.048;2022-12-17T07:11:30;16.40;61.70
49222;DHT22;35047;37.588;-122.048;2022-12-17T07:14:16;16.60;61.90
49222;DHT22;35047;37.588;-122.048;2022-12-17T07:17:01;16.20;62.00
49222;DHT22;35047;37.588;-122.048;2022-12-17T07:19:46;15.50;63.60
49222;DHT22;35047;37.588;-122.048;2022-12-17T07:22:33;16.30;63.00
49222;DHT22;35047;37.588;-122.048;2022-12-17T07:25:17;16.70;60.60
49222;DHT22;35047;37.588;-122.048;2022-12-17T07:28:03;16.60;62.50
49222;DHT22;35047;37.588;-122.048;2022-12-17T07:30:49;16.40;62.50
49222;DHT22;35047;37.588;-122.048;2022-12-17T07:33:35;16.30;62.60
49222;DHT22;35047;37.588;-122.048;2022-12-17T07:36:19;16.40;62.10
49222;DHT22;35047;37.588;-122.048;2022-12-17T07:39:05;16.40;62.00
49222;DHT22;35047;37.588;-122.048;2022-12-17T07:41:51;16.50;61.70
49222;DHT22;35047;37.588;-122.048;2022-12-17T07:44:36;16.80;61.10
49222;DHT22;35047;37.588;-122.048;2022-12-17T07:47:21;16.90;60.70
49222;DHT22;35047;37.588;-122.048;2022-12-17T07:50:07;16.40;61.70
49222;DHT22;35047;37.588;-122.048;2022-12-17T07:53:02;16.70;61.00
49222;DHT22;35047;37.588;-122.048;2022-12-17T07:55:47;16.80;60.90
49222;DHT22;35047;37.588;-122.048;2022-12-17T07:58:33;16.30;61.30
49222;DHT22;35047;37.588;-122.048;2022-12-17T08:01:19;16.50;61.20
49222;DHT22;35047;37.588;-122.048;2022-12-17T08:04:03;16.60;60.50
49222;DHT22;35047;37.588;-122.048;2022-12-17T08:06:50;16.80;60.30
49222;DHT22;35047;37.588;-122.048;2022-12-17T08:09:35;16.60;60.30
49222;DHT22;35047;37.588;-122.048;2022-12-17T08:12:21;16.80;60.20
49222;DHT22;35047;37.588;-122.048;2022-12-17T08:15:06;16.40;60.50
49222;DHT22;35047;37.588;-122.048;2022-12-17T08:17:59;16.40;60.60
49222;DHT22;35047;37.588;-122.048;2022-12-17T08:20:44;16.10;61.50
49222;DHT22;35047;37.588;-122.048;2022-12-17T08:23:30;16.30;61.10
49222;DHT22;35047;37.588;-122.048;2022-12-17T08:26:18;16.60;60.10
49222;DHT22;35047;37.588;-122.048;2022-12-17T08:29:04;16.70;60.40
49222;DHT22;35047;37.588;-122.048;2022-12-17T08:31:49;16.70;60.10
49222;DHT22;35047;37.588;-122.048;2022-12-17T08:34:34;16.60;60.50
49222;DHT22;35047;37.588;-122.048;2022-12-17T08:37:31;16.70;60.10
49222;DHT22;35047;37.588;-122.048;2022-12-17T08:40:16;15.80;59.40
49222;DHT22;35047;37.588;-122.048;2022-12-17T08:43:02;14.70;63.90
49222;DHT22;35047;37.588;-122.048;2022-12-17T08:45:51;15.50;62.60
49222;DHT22;35047;37.588;-122.048;2022-12-17T08:48:37;15.50;62.50
49222;DHT22;35047;37.588;-122.048;2022-12-17T08:51:22;15.80;61.90
49222;DHT22;35047;37.588;-122.048;2022-12-17T08:54:08;16.20;60.80
49222;DHT22;35047;37.588;-122.048;2022-12-17T08:56:54;15.90;61.20
49222;DHT22;35047;37.588;-122.048;2022-12-17T08:59:40;15.90;60.50
49222;DHT22;35047;37.588;-122.048;2022-12-17T09:02:24;15.60;61.80
49222;DHT22;35047;37.588;-122.048;2022-12-17T09:05:10;15.70;61.90
49222;DHT22;35047;37.588;-122.048;2022-12-17T09:08:04;15.60;60.90
49222;DHT22;35047;37.588;-122.048;2022-12-17T09:10:50;15.70;61.40
49222;DHT22;35047;37.588;-122.048;2022-12-17T09:13:37;15.70;61.60
49222;DHT22;35047;37.588;-122.048;2022-12-17T09:16:22;15.90;60.70
49222;DHT22;35047;37.588;-122.048;2022-12-17T09:19:11;15.20;61.80
49222;DHT22;35047;37.588;-122.048;2022-12-17T09:21:56;15.70;61.90
49222;DHT22;35047;37.588;-122.048;2022-12-17T09:24:42;15.30;61.40
49222;DHT22;35047;37.588;-122.048;2022-12-17T09:27:27;15.40;63.00
49222;DHT22;35047;37.588;-122.048;2022-12-17T09:30:12;15.90;61.50
49222;DHT22;35047;37.588;-122.048;2022-12-17T09:32:57;16.00;61.70
49222;DHT22;35047;37.588;-122.048;2022-12-17T09:35:43;15.50;62.00
49222;DHT22;35047;37.588;-122.048;2022-12-17T09:38:28;15.70;61.80
49222;DHT22;35047;37.588;-122.048;2022-12-17T09:44:33;15.80;61.00
49222;DHT22;35047;37.588;-122.048;2022-12-17T09:50:36;15.80;61.30
49222;DHT22;35047;37.588;-122.048;2022-12-17T09:56:12;15.50;62.10
49222;DHT22;35047;37.588;-122.048;2022-12-17T09:58:59;15.90;61.10
49222;DHT22;35047;37.588;-122.048;2022-12-17T10:01:45;15.90;60.80
49222;DHT22;35047;37.588;-122.048;2022-12-17T10:07:22;14.70;63.30
49222;DHT22;35047;37.588;-122.048;2022-12-17T10:10:23;15.20;62.30
49222;DHT22;35047;37.588;-122.048;2022-12-17T10:13:22;14.90;62.30
49222;DHT22;35047;37.588;-122.048;2022-12-17T10:16:21;14.90;62.30
49222;DHT22;35047;37.588;-122.048;2022-12-17T10:19:21;15.00;62.10
49222;DHT22;35047;37.588;-122.048;2022-12-17T10:22:11;15.20;62.00
49222;DHT22;35047;37.588;-122.048;2022-12-17T10:25:03;15.20;61.80
49222;DHT22;35047;37.588;-122.048;2022-12-17T10:27:49;15.40;61.40
49222;DHT22;35047;37.588;-122.048;2022-12-17T10:30:33;15.60;60.80
49222;DHT22;35047;37.588;-122.048;2022-12-17T10:33:20;14.60;62.40
49222;DHT22;35047;37.588;-122.048;2022-12-17T10:36:19;14.40;62.80
49222;DHT22;35047;37.588;-122.048;2022-12-17T10:39:10;15.00;62.30
49222;DHT22;35047;37.588;-122.048;2022-12-17T10:41:58;15.40;61.30
49222;DHT22;35047;37.588;-122.048;2022-12-17T10:44:43;15.20;61.40
49222;DHT22;35047;37.588;-122.048;2022-12-17T10:47:28;15.50;60.70
49222;DHT22;35047;37.588;-122.048;2022-12-17T10:50:22;14.20;60.70
49222;DHT22;35047;37.588;-122.048;2022-12-17T10:53:22;13.90;61.10
49222;DHT22;35047;37.588;-122.048;2022-12-17T10:56:22;14.40;63.70
49222;DHT22;35047;37.588;-122.048;2022-12-17T10:59:24;14.80;62.40
49222;DHT22;35047;37.588;-122.048;2022-12-17T11:02:19;15.30;61.60
49222;DHT22;35047;37.588;-122.048;2022-12-17T11:05:12;15.60;60.80
49222;DHT22;35047;37.588;-122.048;2022-12-17T11:08:00;15.50;60.40
49222;DHT22;35047;37.588;-122.048;2022-12-17T11:10:46;14.50;60.00
49222;DHT22;35047;37.588;-122.048;2022-12-17T11:13:40;13.20;64.20
49222;DHT22;35047;37.588;-122.048;2022-12-17T11:16:34;13.90;64.70
49222;DHT22;35047;37.588;-122.048;2022-12-17T11:28:24;14.30;57.90
49222;DHT22;35047;37.588;-122.048;2022-12-17T11:34:48;13.90;64.30
49222;DHT22;35047;37.588;-122.048;2022-12-17T11:37:59;13.90;60.00
49222;DHT22;35047;37.588;-122.048;2022-12-17T11:40:58;14.40;63.00
49222;DHT22;35047;37.588;-122.048;2022-12-17T11:43:57;14.70;62.10
49222;DHT22;35047;37.588;-122.048;2022-12-17T11:58:51;15.60;59.40
49222;DHT22;35047;37.588;-122.048;2022-12-17T12:01:57;15.70;58.70
49222;DHT22;35047;37.588;-122.048;2022-12-17T12:11:52;15.50;59.70
49222;DHT22;35047;37.588;-122.048;2022-12-17T12:14:37;15.40;59.80
49222;DHT22;35047;37.588;-122.048;2022-12-17T12:21:09;15.30;59.80
49222;DHT22;35047;37.588;-122.048;2022-12-17T12:27:30;14.90;60.70
49222;DHT22;35047;37.588;-122.048;2022-12-17T12:30:23;15.20;60.10
49222;DHT22;35047;37.588;-122.048;2022-12-17T12:33:17;15.20;59.80
49222;DHT22;35047;37.588;-122.048;2022-12-17T12:36:07;14.90;58.90
49222;DHT22;35047;37.588;-122.048;2022-12-17T12:38:55;14.50;61.20
49222;DHT22;35047;37.588;-122.048;2022-12-17T12:45:57;14.40;61.20
49222;DHT22;35047;37.588;-122.048;2022-12-17T12:52:09;14.60;61.50
49222;DHT22;35047;37.588;-122.048;2022-12-17T12:54:55;14.80;60.50
49222;DHT22;35047;37.588;-122.048;2022-12-17T12:57:53;14.70;60.70
49222;DHT22;35047;37.588;-122.048;2022-12-17T13:03:48;15.00;59.70
49222;DHT22;35047;37.588;-122.048;2022-12-17T13:06:42;15.10;59.80
49222;DHT22;35047;37.588;-122.048;2022-12-17T13:11:45;14.90;60.20
49222;DHT22;35047;37.588;-122.048;2022-12-17T13:14:20;15.00;59.30
49222;DHT22;35047;37.588;-122.048;2022-12-17T13:17:19;14.60;61.00
49222;DHT22;35047;37.588;-122.048;2022-12-17T13:19:58;14.40;60.60
49222;DHT22;35047;37.588;-122.048;2022-12-17T13:22:28;14.50;61.20
49222;DHT22;35047;37.588;-122.048;2022-12-17T13:25:13;14.70;60.60
49222;DHT22;35047;37.588;-122.048;2022-12-17T13:27:42;14.00;57.60
49222;DHT22;35047;37.588;-122.048;2022-12-17T13:33:23;14.10;62.10
49222;DHT22;35047;37.588;-122.048;2022-12-17T13:41:40;14.90;60.30
49222;DHT22;35047;37.588;-122.048;2022-12-17T13:44:22;14.90;59.80
49222;DHT22;35047;37.588;-122.048;2022-12-17T13:46:50;15.10;59.10
49222;DHT22;35047;37.588;-122.048;2022-12-17T13:49:23;15.00;59.50
49222;DHT22;35047;37.588;-122.048;2022-12-17T13:52:13;14.70;59.30
49222;DHT22;35047;37.588;-122.048;2022-12-17T13:54:41;14.40;60.70
49222;DHT22;35047;37.588;-122.048;2022-12-17T13:57:11;14.50;60.30
49222;DHT22;35047;37.588;-122.048;2022-12-17T13:59:40;14.80;59.50
49222;DHT22;35047;37.588;-122.048;2022-12-17T14:02:27;14.90;59.70
49222;DHT22;35047;37.588;-122.048;2022-12-17T14:04:57;13.60;61.00
49222;DHT22;35047;37.588;-122.048;2022-12-17T14:07:26;14.10;61.10
49222;DHT22;35047;37.588;-122.048;2022-12-17T14:09:54;14.20;60.50
49222;DHT22;35047;37.588;-122.048;2022-12-17T14:12:21;12.30;62.50
49222;DHT22;35047;37.588;-122.048;2022-12-17T14:15:04;12.90;65.00
49222;DHT22;35047;37.588;-122.048;2022-12-17T14:17:43;13.20;63.40
49222;DHT22;35047;37.588;-122.048;2022-12-17T14:20:13;13.90;62.20
49222;DHT22;35047;37.588;-122.048;2022-12-17T14:22:53;13.30;61.80
49222;DHT22;35047;37.588;-122.048;2022-12-17T14:25:22;13.80;62.30
49222;DHT22;35047;37.588;-122.048;2022-12-17T14:28:00;13.40;62.60
49222;DHT22;35047;37.588;-122.048;2022-12-17T14:33:02;14.00;61.80
49222;DHT22;35047;37.588;-122.048;2022-12-17T14:35:34;14.00;61.40
49222;DHT22;35047;37.588;-122.048;2022-12-17T14:38:02;14.10;61.60
49222;DHT22;35047;37.588;-122.048;2022-12-17T14:40:29;14.20;61.10
49222;DHT22;35047;37.588;-122.048;2022-12-17T14:42:59;14.40;60.80
49222;DHT22;35047;37.588;-122.048;2022-12-17T14:45:27;12.90;59.50
49222;DHT22;35047;37.588;-122.048;2022-12-17T14:48:00;13.40;63.20
49222;DHT22;35047;37.588;-122.048;2022-12-17T14:50:34;13.90;62.00
49222;DHT22;35047;37.588;-122.048;2022-12-17T14:53:22;14.20;61.00
49222;DHT22;35047;37.588;-122.048;2022-12-17T14:55:57;13.90;61.20
49222;DHT22;35047;37.588;-122.048;2022-12-17T14:58:25;13.40;62.40
49222;DHT22;35047;37.588;-122.048;2022-12-17T15:01:06;13.50;62.40
49222;DHT22;35047;37.588;-122.048;2022-12-17T15:03:41;13.60;62.20
49222;DHT22;35047;37.588;-122.048;2022-12-17T15:06:14;14.00;61.70
49222;DHT22;35047;37.588;-122.048;2022-12-17T15:08:45;13.20;62.80
49222;DHT22;35047;37.588;-122.048;2022-12-17T15:11:16;13.80;62.00
49222;DHT22;35047;37.588;-122.048;2022-12-17T15:13:45;13.30;62.50
49222;DHT22;35047;37.588;-122.048;2022-12-17T15:16:11;13.50;62.50
49222;DHT22;35047;37.588;-122.048;2022-12-17T15:18:38;13.90;61.40
49222;DHT22;35047;37.588;-122.048;2022-12-17T15:21:07;13.30;62.20
49222;DHT22;35047;37.588;-122.048;2022-12-17T15:23:39;13.70;62.10
49222;DHT22;35047;37.588;-122.048;2022-12-17T15:26:08;14.00;61.10
49222;DHT22;35047;37.588;-122.048;2022-12-17T15:28:36;14.20;60.70
49222;DHT22;35047;37.588;-122.048;2022-12-17T15:31:03;14.00;60.70
49222;DHT22;35047;37.588;-122.048;2022-12-17T15:33:29;14.30;60.30
49222;DHT22;35047;37.588;-122.048;2022-12-17T15:35:57;14.30;60.00
49222;DHT22;35047;37.588;-122.048;2022-12-17T15:38:24;14.40;60.30
49222;DHT22;35047;37.588;-122.048;2022-12-17T15:40:51;13.70;61.40
49222;DHT22;35047;37.588;-122.048;2022-12-17T15:43:18;14.00;61.50
49222;DHT22;35047;37.588;-122.048;2022-12-17T15:45:48;14.00;61.20
49222;DHT22;35047;37.588;-122.048;2022-12-17T15:48:21;14.10;60.80
49222;DHT22;35047;37.588;-122.048;2022-12-17T15:50:50;14.20;61.00
49222;DHT22;35047;37.588;-122.048;2022-12-17T15:53:17;13.70;61.10
49222;DHT22;35047;37.588;-122.048;2022-12-17T15:55:44;13.50;62.60
49222;DHT22;35047;37.588;-122.048;2022-12-17T15:58:11;13.90;61.30
49222;DHT22;35047;37.588;-122.048;2022-12-17T16:00:38;14.10;61.70
49222;DHT22;35047;37.588;-122.048;2022-12-17T16:03:07;14.10;62.10
49222;DHT22;35047;37.588;-122.048;2022-12-17T16:05:33;14.10;62.40
49222;DHT22;35047;37.588;-122.048;2022-12-17T16:08:01;13.70;62.90
49222;DHT22;35047;37.588;-122.048;2022-12-17T16:10:28;13.30;63.20
49222;DHT22;35047;37.588;-122.048;2022-12-17T16:12:55;13.40;64.50
49222;DHT22;35047;37.588;-122.048;2022-12-17T16:15:23;13.60;64.40
49222;DHT22;35047;37.588;-122.048;2022-12-17T16:17:50;13.20;64.30
49222;DHT22;35047;37.588;-122.048;2022-12-17T16:20:17;13.20;63.20
49222;DHT22;35047;37.588;-122.048;2022-12-17T16:22:44;13.00;64.20
49222;DHT22;35047;37.588;-122.048;2022-12-17T16:25:10;12.20;65.30
49222;DHT22;35047;37.588;-122.048;2022-12-17T16:27:38;12.00;69.80
49222;DHT22;35047;37.588;-122.048;2022-12-17T16:30:05;13.00;68.20
49222;DHT22;35047;37.588;-122.048;2022-12-17T16:32:32;13.80;65.90
49222;DHT22;35047;37.588;-122.048;2022-12-17T16:34:59;13.60;65.20
49222;DHT22;35047;37.588;-122.048;2022-12-17T16:37:26;12.70;69.20
49222;DHT22;35047;37.588;-122.048;2022-12-17T16:39:53;13.70;65.50
49222;DHT22;35047;37.588;-122.048;2022-12-17T16:42:20;14.40;68.00
49222;DHT22;35047;37.588;-122.048;2022-12-17T16:44:48;15.40;67.00
49222;DHT22;35047;37.588;-122.048;2022-12-17T16:47:14;15.70;66.20
49222;DHT22;35047;37.588;-122.048;2022-12-17T16:49:41;15.40;65.60
49222;DHT22;35047;37.588;-122.048;2022-12-17T16:52:08;16.00;67.40
49222;DHT22;35047;37.588;-122.048;2022-12-17T16:54:35;17.10;64.80
49222;DHT22;35047;37.588;-122.048;2022-12-17T16:57:01;17.80;64.00
49222;DHT22;35047;37.588;-122.048;2022-12-17T16:59:28;17.40;60.50
49222;DHT22;35047;37.588;-122.048;2022-12-17T17:01:56;16.30;63.70
49222;DHT22;35047;37.588;-122.048;2022-12-17T17:04:25;16.80;66.90
49222;DHT22;35047;37.588;-122.048;2022-12-17T17:06:53;18.40;63.70
49222;DHT22;35047;37.588;-122.048;2022-12-17T17:09:23;19.10;62.40
49222;DHT22;35047;37.588;-122.048;2022-12-17T17:11:54;19.90;58.00
49222;DHT22;35047;37.588;-122.048;2022-12-17T17:14:22;20.30;58.10
49222;DHT22;35047;37.588;-122.048;2022-12-17T17:16:49;20.60;58.40
49222;DHT22;35047;37.588;-122.048;2022-12-17T17:19:16;19.60;60.20
49222;DHT22;35047;37.588;-122.048;2022-12-17T17:21:53;20.50;57.10
49222;DHT22;35047;37.588;-122.048;2022-12-17T17:24:21;18.80;55.90
49222;DHT22;35047;37.588;-122.048;2022-12-17T17:26:51;18.10;62.40
49222;DHT22;35047;37.588;-122.048;2022-12-17T17:29:19;19.60;60.10
49222;DHT22;35047;37.588;-122.048;2022-12-17T17:31:46;18.90;57.70
49222;DHT22;35047;37.588;-122.048;2022-12-17T17:34:14;17.50;62.50
49222;DHT22;35047;37.588;-122.048;2022-12-17T17:36:42;18.90;62.60
49222;DHT22;35047;37.588;-122.048;2022-12-17T17:39:09;20.20;60.00
49222;DHT22;35047;37.588;-122.048;2022-12-17T17:41:43;20.50;55.30